sensor_id;sensor_type;location;lat;lon;timestamp;P1;durP1;ratioP1;P2;durP2;ratioP2
60973;SDS011;46846;51.528;5.076;2023-08-08T00:01:24;447.48;;;425.73;;
60973;SDS011;46846;51.528;5.076;2023-08-08T00:03:49;453.42;;;431.23;;
60973;SDS011;46846;51.528;5.076;2023-08-08T00:06:15;452.88;;;431.08;;
60973;SDS011;46846;51.528;5.076;2023-08-08T00:08:40;452.88;;;430.70;;
60973;SDS011;46846;51.528;5.076;2023-08-08T00:11:06;451.67;;;429.40;;
60973;SDS011;46846;51.528;5.076;2023-08-08T00:13:31;448.60;;;426.50;;
60973;SDS011;46846;51.528;5.076;2023-08-08T00:15:57;444.10;;;422.38;;
60973;SDS011;46846;51.528;5.076;2023-08-08T00:18:22;449.60;;;427.63;;
60973;SDS011;46846;51.528;5.076;2023-08-08T00:20:48;432.45;;;411.17;;
60973;SDS011;46846;51.528;5.076;2023-08-08T00:23:13;426.02;;;405.23;;
60973;SDS011;46846;51.528;5.076;2023-08-08T00:25:39;457.77;;;435.58;;
60973;SDS011;46846;51.528;5.076;2023-08-08T00:28:04;436.38;;;415.20;;
60973;SDS011;46846;51.528;5.076;2023-08-08T00:30:30;447.85;;;425.65;;
60973;SDS011;46846;51.528;5.076;2023-08-08T00:32:55;468.48;;;445.83;;
60973;SDS011;46846;51.528;5.076;2023-08-08T00:35:20;442.42;;;420.65;;
60973;SDS011;46846;51.528;5.076;2023-08-08T00:37:46;447.08;;;425.25;;
60973;SDS011;46846;51.528;5.076;2023-08-08T00:40:11;456.55;;;434.33;;
60973;SDS011;46846;51.528;5.076;2023-08-08T00:42:37;437.45;;;415.73;;
60973;SDS011;46846;51.528;5.076;2023-08-08T00:45:02;462.10;;;439.33;;
60973;SDS011;46846;51.528;5.076;2023-08-08T00:47:31;435.08;;;413.65;;
60973;SDS011;46846;51.528;5.076;2023-08-08T00:49:58;452.33;;;430.38;;
60973;SDS011;46846;51.528;5.076;2023-08-08T00:52:24;445.15;;;423.40;;
60973;SDS011;46846;51.528;5.076;2023-08-08T00:54:50;447.90;;;426.10;;
60973;SDS011;46846;51.528;5.076;2023-08-08T00:57:17;449.52;;;427.83;;
60973;SDS011;46846;51.528;5.076;2023-08-08T00:59:43;442.38;;;420.90;;
60973;SDS011;46846;51.528;5.076;2023-08-08T01:02:08;447.92;;;426.15;;
60973;SDS011;46846;51.528;5.076;2023-08-08T01:04:33;439.42;;;417.85;;
60973;SDS011;46846;51.528;5.076;2023-08-08T01:12:41;428.58;;;407.20;;
60973;SDS011;46846;51.528;5.076;2023-08-08T01:15:18;448.85;;;426.75;;
60973;SDS011;46846;51.528;5.076;2023-08-08T01:17:45;432.27;;;411.05;;
60973;SDS011;46846;51.528;5.076;2023-08-08T01:20:13;433.20;;;411.75;;
60973;SDS011;46846;51.528;5.076;2023-08-08T01:22:47;427.15;;;406.20;;
60973;SDS011;46846;51.528;5.076;2023-08-08T01:25:20;443.25;;;421.60;;
60973;SDS011;46846;51.528;5.076;2023-08-08T01:27:46;442.08;;;420.35;;
60973;SDS011;46846;51.528;5.076;2023-08-08T01:30:11;435.50;;;414.27;;
60973;SDS011;46846;51.528;5.076;2023-08-08T01:32:37;460.83;;;438.52;;
60973;SDS011;46846;51.528;5.076;2023-08-08T01:35:03;440.63;;;418.95;;
60973;SDS011;46846;51.528;5.076;2023-08-08T01:39:57;446.60;;;424.80;;
60973;SDS011;46846;51.528;5.076;2023-08-08T01:42:25;423.23;;;402.23;;
60973;SDS011;46846;51.528;5.076;2023-08-08T01:44:51;431.48;;;410.10;;
60973;SDS011;46846;51.528;5.076;2023-08-08T01:47:18;440.83;;;419.27;;
60973;SDS011;46846;51.528;5.076;2023-08-08T01:49:44;449.23;;;427.42;;
60973;SDS011;46846;51.528;5.076;2023-08-08T01:52:09;445.15;;;423.27;;
60973;SDS011;46846;51.528;5.076;2023-08-08T01:54:34;433.02;;;411.67;;
60973;SDS011;46846;51.528;5.076;2023-08-08T01:57:00;440.10;;;418.23;;
60973;SDS011;46846;51.528;5.076;2023-08-08T01:59:25;428.15;;;407.35;;
60973;SDS011;46846;51.528;5.076;2023-08-08T02:01:51;444.90;;;423.15;;
60973;SDS011;46846;51.528;5.076;2023-08-08T02:04:16;445.80;;;424.23;;
60973;SDS011;46846;51.528;5.076;2023-08-08T02:06:41;456.48;;;434.25;;
60973;SDS011;46846;51.528;5.076;2023-08-08T02:09:07;433.98;;;412.80;;
60973;SDS011;46846;51.528;5.076;2023-08-08T02:11:32;434.55;;;413.08;;
60973;SDS011;46846;51.528;5.076;2023-08-08T02:13:58;434.38;;;413.13;;
60973;SDS011;46846;51.528;5.076;2023-08-08T02:16:23;416.42;;;395.73;;
60973;SDS011;46846;51.528;5.076;2023-08-08T02:18:48;426.00;;;405.20;;
60973;SDS011;46846;51.528;5.076;2023-08-08T02:21:14;445.35;;;423.60;;
60973;SDS011;46846;51.528;5.076;2023-08-08T02:23:41;423.63;;;402.90;;
60973;SDS011;46846;51.528;5.076;2023-08-08T02:26:06;437.80;;;416.38;;
60973;SDS011;46846;51.528;5.076;2023-08-08T02:28:32;440.77;;;419.25;;
60973;SDS011;46846;51.528;5.076;2023-08-08T02:30:57;422.70;;;401.83;;
60973;SDS011;46846;51.528;5.076;2023-08-08T02:33:22;444.88;;;422.92;;
60973;SDS011;46846;51.528;5.076;2023-08-08T02:35:48;447.35;;;425.38;;
60973;SDS011;46846;51.528;5.076;2023-08-08T02:38:13;404.88;;;384.88;;
60973;SDS011;46846;51.528;5.076;2023-08-08T02:40:39;423.13;;;402.15;;
60973;SDS011;46846;51.528;5.076;2023-08-08T02:43:04;438.63;;;417.10;;
60973;SDS011;46846;51.528;5.076;2023-08-08T02:45:29;440.65;;;418.50;;
60973;SDS011;46846;51.528;5.076;2023-08-08T02:47:55;404.73;;;384.20;;
60973;SDS011;46846;51.528;5.076;2023-08-08T02:50:20;432.77;;;411.17;;
60973;SDS011;46846;51.528;5.076;2023-08-08T02:52:46;431.88;;;409.58;;
60973;SDS011;46846;51.528;5.076;2023-08-08T02:55:11;413.27;;;392.55;;
60973;SDS011;46846;51.528;5.076;2023-08-08T02:57:37;450.60;;;428.70;;
60973;SDS011;46846;51.528;5.076;2023-08-08T03:00:02;427.60;;;406.63;;
60973;SDS011;46846;51.528;5.076;2023-08-08T03:02:29;434.02;;;412.80;;
60973;SDS011;46846;51.528;5.076;2023-08-08T03:04:55;422.30;;;401.23;;
60973;SDS011;46846;51.528;5.076;2023-08-08T03:07:20;444.17;;;422.48;;
60973;SDS011;46846;51.528;5.076;2023-08-08T03:09:45;430.67;;;409.13;;
60973;SDS011;46846;51.528;5.076;2023-08-08T03:12:11;433.35;;;412.05;;
60973;SDS011;46846;51.528;5.076;2023-08-08T03:14:36;439.40;;;417.23;;
60973;SDS011;46846;51.528;5.076;2023-08-08T03:17:02;425.92;;;405.02;;
60973;SDS011;46846;51.528;5.076;2023-08-08T03:19:27;437.65;;;415.80;;
60973;SDS011;46846;51.528;5.076;2023-08-08T03:21:52;431.25;;;410.10;;
60973;SDS011;46846;51.528;5.076;2023-08-08T03:24:18;426.35;;;405.45;;
60973;SDS011;46846;51.528;5.076;2023-08-08T03:26:43;425.00;;;403.95;;
60973;SDS011;46846;51.528;5.076;2023-08-08T03:29:09;426.90;;;405.92;;
60973;SDS011;46846;51.528;5.076;2023-08-08T03:31:35;419.95;;;398.98;;
60973;SDS011;46846;51.528;5.076;2023-08-08T03:34:01;436.83;;;415.42;;
60973;SDS011;46846;51.528;5.076;2023-08-08T03:36:27;430.15;;;407.92;;
60973;SDS011;46846;51.528;5.076;2023-08-08T03:38:52;407.92;;;387.88;;
60973;SDS011;46846;51.528;5.076;2023-08-08T03:41:17;432.83;;;411.17;;
60973;SDS011;46846;51.528;5.076;2023-08-08T03:43:43;422.85;;;401.92;;
60973;SDS011;46846;51.528;5.076;2023-08-08T03:46:08;433.63;;;412.33;;
60973;SDS011;46846;51.528;5.076;2023-08-08T03:48:34;420.25;;;399.23;;
60973;SDS011;46846;51.528;5.076;2023-08-08T03:50:59;409.75;;;389.65;;
60973;SDS011;46846;51.528;5.076;2023-08-08T03:53:25;430.33;;;408.20;;
60973;SDS011;46846;51.528;5.076;2023-08-08T03:55:50;428.85;;;407.42;;
60973;SDS011;46846;51.528;5.076;2023-08-08T03:58:15;428.30;;;407.20;;
60973;SDS011;46846;51.528;5.076;2023-08-08T04:00:41;425.75;;;404.65;;
60973;SDS011;46846;51.528;5.076;2023-08-08T04:03:13;438.33;;;416.15;;
60973;SDS011;46846;51.528;5.076;2023-08-08T04:05:39;438.83;;;416.80;;
60973;SDS011;46846;51.528;5.076;2023-08-08T04:08:06;435.17;;;413.27;;
60973;SDS011;46846;51.528;5.076;2023-08-08T04:10:31;408.55;;;387.50;;
60973;SDS011;46846;51.528;5.076;2023-08-08T04:12:56;418.58;;;397.58;;
60973;SDS011;46846;51.528;5.076;2023-08-08T04:15:22;443.30;;;421.30;;
60973;SDS011;46846;51.528;5.076;2023-08-08T04:17:47;416.10;;;395.45;;
60973;SDS011;46846;51.528;5.076;2023-08-08T04:20:12;429.65;;;407.92;;
60973;SDS011;46846;51.528;5.076;2023-08-08T04:22:39;429.00;;;407.80;;
60973;SDS011;46846;51.528;5.076;2023-08-08T04:25:05;420.35;;;399.77;;
60973;SDS011;46846;51.528;5.076;2023-08-08T04:27:31;446.35;;;424.13;;
60973;SDS011;46846;51.528;5.076;2023-08-08T04:29:56;408.88;;;388.65;;
60973;SDS011;46846;51.528;5.076;2023-08-08T04:32:21;422.77;;;401.33;;
60973;SDS011;46846;51.528;5.076;2023-08-08T04:34:47;421.63;;;400.73;;
60973;SDS011;46846;51.528;5.076;2023-08-08T04:37:12;402.00;;;381.80;;
60973;SDS011;46846;51.528;5.076;2023-08-08T04:39:38;401.52;;;381.25;;
60973;SDS011;46846;51.528;5.076;2023-08-08T04:42:03;406.70;;;386.40;;
60973;SDS011;46846;51.528;5.076;2023-08-08T04:44:29;426.80;;;405.02;;
60973;SDS011;46846;51.528;5.076;2023-08-08T04:46:55;427.80;;;406.05;;
60973;SDS011;46846;51.528;5.076;2023-08-08T04:49:20;416.15;;;395.60;;
60973;SDS011;46846;51.528;5.076;2023-08-08T04:51:46;411.63;;;391.20;;
60973;SDS011;46846;51.528;5.076;2023-08-08T04:54:12;424.50;;;402.92;;
60973;SDS011;46846;51.528;5.076;2023-08-08T04:56:37;409.15;;;388.80;;
60973;SDS011;46846;51.528;5.076;2023-08-08T04:59:03;396.50;;;376.52;;
60973;SDS011;46846;51.528;5.076;2023-08-08T05:01:28;428.33;;;407.30;;
60973;SDS011;46846;51.528;5.076;2023-08-08T05:03:53;429.90;;;408.50;;
60973;SDS011;46846;51.528;5.076;2023-08-08T05:06:19;412.17;;;391.77;;
60973;SDS011;46846;51.528;5.076;2023-08-08T05:08:44;411.90;;;391.30;;
60973;SDS011;46846;51.528;5.076;2023-08-08T05:11:10;424.33;;;403.23;;
60973;SDS011;46846;51.528;5.076;2023-08-08T05:13:35;405.42;;;384.42;;
60973;SDS011;46846;51.528;5.076;2023-08-08T05:16:00;418.00;;;397.20;;
60973;SDS011;46846;51.528;5.076;2023-08-08T05:18:26;423.90;;;402.63;;
60973;SDS011;46846;51.528;5.076;2023-08-08T05:20:51;403.23;;;382.92;;
60973;SDS011;46846;51.528;5.076;2023-08-08T05:23:16;413.73;;;392.85;;
60973;SDS011;46846;51.528;5.076;2023-08-08T05:25:42;403.45;;;383.48;;
60973;SDS011;46846;51.528;5.076;2023-08-08T05:28:07;413.08;;;391.98;;
60973;SDS011;46846;51.528;5.076;2023-08-08T05:30:33;400.83;;;380.98;;
60973;SDS011;46846;51.528;5.076;2023-08-08T05:32:58;412.20;;;391.73;;
60973;SDS011;46846;51.528;5.076;2023-08-08T05:35:24;410.95;;;390.45;;
60973;SDS011;46846;51.528;5.076;2023-08-08T05:37:49;409.13;;;388.23;;
60973;SDS011;46846;51.528;5.076;2023-08-08T05:40:15;409.25;;;388.58;;
60973;SDS011;46846;51.528;5.076;2023-08-08T05:42:40;409.83;;;389.30;;
60973;SDS011;46846;51.528;5.076;2023-08-08T05:45:06;432.33;;;410.85;;
60973;SDS011;46846;51.528;5.076;2023-08-08T05:47:32;406.27;;;385.08;;
60973;SDS011;46846;51.528;5.076;2023-08-08T05:49:57;412.25;;;391.60;;
60973;SDS011;46846;51.528;5.076;2023-08-08T05:52:23;411.92;;;391.27;;
60973;SDS011;46846;51.528;5.076;2023-08-08T05:54:48;405.58;;;385.08;;
60973;SDS011;46846;51.528;5.076;2023-08-08T05:57:13;408.20;;;387.63;;
60973;SDS011;46846;51.528;5.076;2023-08-08T05:59:39;397.92;;;378.17;;
60973;SDS011;46846;51.528;5.076;2023-08-08T06:02:04;407.40;;;387.05;;
60973;SDS011;46846;51.528;5.076;2023-08-08T06:04:30;424.83;;;403.88;;
60973;SDS011;46846;51.528;5.076;2023-08-08T06:06:55;401.00;;;380.73;;
60973;SDS011;46846;51.528;5.076;2023-08-08T06:09:21;435.73;;;413.55;;
60973;SDS011;46846;51.528;5.076;2023-08-08T06:11:47;414.52;;;393.73;;
60973;SDS011;46846;51.528;5.076;2023-08-08T06:14:13;414.05;;;393.48;;
60973;SDS011;46846;51.528;5.076;2023-08-08T06:16:38;388.77;;;369.35;;
60973;SDS011;46846;51.528;5.076;2023-08-08T06:19:03;397.77;;;377.70;;
60973;SDS011;46846;51.528;5.076;2023-08-08T06:21:29;406.60;;;385.50;;
60973;SDS011;46846;51.528;5.076;2023-08-08T06:23:54;417.58;;;396.27;;
60973;SDS011;46846;51.528;5.076;2023-08-08T06:26:20;411.52;;;391.00;;
60973;SDS011;46846;51.528;5.076;2023-08-08T06:28:49;403.95;;;383.70;;
60973;SDS011;46846;51.528;5.076;2023-08-08T06:31:16;405.45;;;385.38;;
60973;SDS011;46846;51.528;5.076;2023-08-08T06:33:42;416.10;;;395.45;;
60973;SDS011;46846;51.528;5.076;2023-08-08T06:36:08;419.15;;;397.40;;
60973;SDS011;46846;51.528;5.076;2023-08-08T06:38:33;405.55;;;385.27;;
60973;SDS011;46846;51.528;5.076;2023-08-08T06:41:02;406.25;;;385.48;;
60973;SDS011;46846;51.528;5.076;2023-08-08T06:43:28;405.73;;;385.27;;
60973;SDS011;46846;51.528;5.076;2023-08-08T06:45:53;412.15;;;391.85;;
60973;SDS011;46846;51.528;5.076;2023-08-08T06:48:19;426.83;;;405.08;;
60973;SDS011;46846;51.528;5.076;2023-08-08T06:50:44;422.80;;;401.50;;
60973;SDS011;46846;51.528;5.076;2023-08-08T06:53:10;410.00;;;389.13;;
60973;SDS011;46846;51.528;5.076;2023-08-08T06:55:35;425.95;;;404.90;;
60973;SDS011;46846;51.528;5.076;2023-08-08T06:58:01;391.10;;;371.33;;
60973;SDS011;46846;51.528;5.076;2023-08-08T07:00:26;415.67;;;394.83;;
60973;SDS011;46846;51.528;5.076;2023-08-08T07:02:53;415.98;;;394.77;;
60973;SDS011;46846;51.528;5.076;2023-08-08T07:05:18;409.25;;;388.45;;
60973;SDS011;46846;51.528;5.076;2023-08-08T07:07:44;411.20;;;390.65;;
60973;SDS011;46846;51.528;5.076;2023-08-08T07:10:12;406.70;;;386.20;;
60973;SDS011;46846;51.528;5.076;2023-08-08T07:12:38;423.38;;;402.50;;
60973;SDS011;46846;51.528;5.076;2023-08-08T07:15:05;422.30;;;401.20;;
60973;SDS011;46846;51.528;5.076;2023-08-08T07:17:32;401.02;;;380.65;;
60973;SDS011;46846;51.528;5.076;2023-08-08T07:19:57;399.08;;;378.58;;
60973;SDS011;46846;51.528;5.076;2023-08-08T07:22:23;419.83;;;399.10;;
60973;SDS011;46846;51.528;5.076;2023-08-08T07:24:48;432.02;;;410.52;;
60973;SDS011;46846;51.528;5.076;2023-08-08T07:27:14;406.25;;;385.92;;
60973;SDS011;46846;51.528;5.076;2023-08-08T07:29:39;412.08;;;391.35;;
60973;SDS011;46846;51.528;5.076;2023-08-08T07:32:05;411.40;;;390.75;;
60973;SDS011;46846;51.528;5.076;2023-08-08T07:34:31;410.42;;;390.00;;
60973;SDS011;46846;51.528;5.076;2023-08-08T07:36:57;422.70;;;401.70;;
60973;SDS011;46846;51.528;5.076;2023-08-08T07:39:23;418.92;;;397.98;;
60973;SDS011;46846;51.528;5.076;2023-08-08T07:41:48;424.67;;;403.65;;
60973;SDS011;46846;51.528;5.076;2023-08-08T07:44:14;412.88;;;392.58;;
60973;SDS011;46846;51.528;5.076;2023-08-08T07:46:40;421.10;;;400.15;;
60973;SDS011;46846;51.528;5.076;2023-08-08T07:49:06;430.80;;;409.52;;
60973;SDS011;46846;51.528;5.076;2023-08-08T07:51:31;424.70;;;402.70;;
60973;SDS011;46846;51.528;5.076;2023-08-08T07:53:57;419.38;;;398.85;;
60973;SDS011;46846;51.528;5.076;2023-08-08T07:56:23;432.02;;;410.05;;
60973;SDS011;46846;51.528;5.076;2023-08-08T07:58:48;421.42;;;400.73;;
60973;SDS011;46846;51.528;5.076;2023-08-08T08:01:14;416.52;;;395.90;;
60973;SDS011;46846;51.528;5.076;2023-08-08T08:03:39;433.77;;;412.13;;
60973;SDS011;46846;51.528;5.076;2023-08-08T08:06:05;434.58;;;412.80;;
60973;SDS011;46846;51.528;5.076;2023-08-08T08:08:30;431.23;;;409.77;;
60973;SDS011;46846;51.528;5.076;2023-08-08T08:10:56;431.45;;;410.13;;
60973;SDS011;46846;51.528;5.076;2023-08-08T08:13:21;428.20;;;406.98;;
60973;SDS011;46846;51.528;5.076;2023-08-08T08:15:47;431.50;;;410.05;;
60973;SDS011;46846;51.528;5.076;2023-08-08T08:18:12;424.70;;;403.67;;
60973;SDS011;46846;51.528;5.076;2023-08-08T08:20:39;442.48;;;420.60;;
60973;SDS011;46846;51.528;5.076;2023-08-08T08:23:04;429.80;;;408.50;;
60973;SDS011;46846;51.528;5.076;2023-08-08T08:25:30;418.30;;;397.20;;
60973;SDS011;46846;51.528;5.076;2023-08-08T08:27:57;433.23;;;412.02;;
60973;SDS011;46846;51.528;5.076;2023-08-08T08:30:22;418.95;;;398.20;;
60973;SDS011;46846;51.528;5.076;2023-08-08T08:32:50;425.58;;;404.77;;
60973;SDS011;46846;51.528;5.076;2023-08-08T08:35:16;425.33;;;404.02;;
60973;SDS011;46846;51.528;5.076;2023-08-08T08:37:42;420.23;;;399.73;;
60973;SDS011;46846;51.528;5.076;2023-08-08T08:40:08;429.70;;;408.70;;
60973;SDS011;46846;51.528;5.076;2023-08-08T08:42:34;437.10;;;415.73;;
60973;SDS011;46846;51.528;5.076;2023-08-08T08:45:01;433.50;;;412.23;;
60973;SDS011;46846;51.528;5.076;2023-08-08T08:47:29;440.33;;;418.60;;
60973;SDS011;46846;51.528;5.076;2023-08-08T08:49:56;456.55;;;434.33;;
60973;SDS011;46846;51.528;5.076;2023-08-08T08:52:22;437.45;;;415.73;;
60973;SDS011;46846;51.528;5.076;2023-08-08T08:54:50;435.95;;;414.70;;
60973;SDS011;46846;51.528;5.076;2023-08-08T08:57:16;431.73;;;410.58;;
60973;SDS011;46846;51.528;5.076;2023-08-08T08:59:41;432.88;;;411.70;;
60973;SDS011;46846;51.528;5.076;2023-08-08T09:02:07;447.50;;;425.35;;
60973;SDS011;46846;51.528;5.076;2023-08-08T09:04:33;437.73;;;416.42;;
60973;SDS011;46846;51.528;5.076;2023-08-08T09:06:59;447.02;;;425.30;;
60973;SDS011;46846;51.528;5.076;2023-08-08T09:09:25;437.10;;;415.70;;
60973;SDS011;46846;51.528;5.076;2023-08-08T09:11:53;441.35;;;419.88;;
60973;SDS011;46846;51.528;5.076;2023-08-08T09:14:23;431.35;;;410.23;;
60973;SDS011;46846;51.528;5.076;2023-08-08T09:16:50;440.95;;;419.45;;
60973;SDS011;46846;51.528;5.076;2023-08-08T09:19:18;424.88;;;404.13;;
60973;SDS011;46846;51.528;5.076;2023-08-08T09:21:44;438.05;;;416.75;;
60973;SDS011;46846;51.528;5.076;2023-08-08T09:24:10;436.25;;;414.73;;
60973;SDS011;46846;51.528;5.076;2023-08-08T09:26:36;432.65;;;411.52;;
60973;SDS011;46846;51.528;5.076;2023-08-08T09:29:04;443.92;;;422.40;;
60973;SDS011;46846;51.528;5.076;2023-08-08T09:31:30;425.85;;;404.70;;
60973;SDS011;46846;51.528;5.076;2023-08-08T09:33:59;426.80;;;405.95;;
60973;SDS011;46846;51.528;5.076;2023-08-08T09:36:25;442.40;;;420.95;;
60973;SDS011;46846;51.528;5.076;2023-08-08T09:38:52;441.52;;;419.17;;
60973;SDS011;46846;51.528;5.076;2023-08-08T09:41:19;422.50;;;401.92;;
60973;SDS011;46846;51.528;5.076;2023-08-08T09:43:46;428.35;;;406.92;;
60973;SDS011;46846;51.528;5.076;2023-08-08T09:46:13;434.85;;;413.70;;
60973;SDS011;46846;51.528;5.076;2023-08-08T09:48:40;414.27;;;393.95;;
60973;SDS011;46846;51.528;5.076;2023-08-08T09:51:06;443.20;;;421.63;;
60973;SDS011;46846;51.528;5.076;2023-08-08T09:53:32;425.00;;;404.30;;
60973;SDS011;46846;51.528;5.076;2023-08-08T09:55:59;422.55;;;402.02;;
60973;SDS011;46846;51.528;5.076;2023-08-08T09:58:26;443.05;;;421.50;;
60973;SDS011;46846;51.528;5.076;2023-08-08T10:00:51;433.30;;;411.35;;
60973;SDS011;46846;51.528;5.076;2023-08-08T10:03:17;442.30;;;420.83;;
60973;SDS011;46846;51.528;5.076;2023-08-08T10:05:44;426.65;;;405.85;;
60973;SDS011;46846;51.528;5.076;2023-08-08T10:08:10;453.20;;;431.27;;
60973;SDS011;46846;51.528;5.076;2023-08-08T10:10:36;428.88;;;407.70;;
60973;SDS011;46846;51.528;5.076;2023-08-08T10:13:02;453.42;;;431.40;;
60973;SDS011;46846;51.528;5.076;2023-08-08T10:15:28;461.92;;;439.63;;
60973;SDS011;46846;51.528;5.076;2023-08-08T10:17:55;453.77;;;431.50;;
60973;SDS011;46846;51.528;5.076;2023-08-08T10:20:23;462.63;;;440.08;;
60973;SDS011;46846;51.528;5.076;2023-08-08T10:22:50;447.02;;;425.20;;
60973;SDS011;46846;51.528;5.076;2023-08-08T10:25:18;464.02;;;441.13;;
60973;SDS011;46846;51.528;5.076;2023-08-08T10:32:55;426.17;;;405.10;;
60973;SDS011;46846;51.528;5.076;2023-08-08T10:35:22;443.42;;;421.85;;
60973;SDS011;46846;51.528;5.076;2023-08-08T10:37:55;445.60;;;424.00;;
60973;SDS011;46846;51.528;5.076;2023-08-08T10:40:23;468.25;;;445.33;;
60973;SDS011;46846;51.528;5.076;2023-08-08T10:42:48;461.60;;;439.00;;
60973;SDS011;46846;51.528;5.076;2023-08-08T10:45:15;468.25;;;445.23;;
60973;SDS011;46846;51.528;5.076;2023-08-08T10:47:41;456.90;;;434.67;;
60973;SDS011;46846;51.528;5.076;2023-08-08T10:50:09;470.58;;;447.42;;
60973;SDS011;46846;51.528;5.076;2023-08-08T10:57:53;463.73;;;441.40;;
60973;SDS011;46846;51.528;5.076;2023-08-08T11:00:18;467.00;;;444.38;;
60973;SDS011;46846;51.528;5.076;2023-08-08T11:02:44;448.05;;;426.25;;
60973;SDS011;46846;51.528;5.076;2023-08-08T11:05:10;454.23;;;432.25;;
60973;SDS011;46846;51.528;5.076;2023-08-08T11:07:36;467.35;;;444.80;;
60973;SDS011;46846;51.528;5.076;2023-08-08T11:10:02;464.45;;;442.00;;
60973;SDS011;46846;51.528;5.076;2023-08-08T11:12:29;459.80;;;437.65;;
60973;SDS011;46846;51.528;5.076;2023-08-08T11:14:54;468.48;;;445.70;;
60973;SDS011;46846;51.528;5.076;2023-08-08T11:17:20;457.52;;;435.42;;
60973;SDS011;46846;51.528;5.076;2023-08-08T11:19:45;470.10;;;446.95;;
60973;SDS011;46846;51.528;5.076;2023-08-08T11:22:11;461.52;;;439.25;;
60973;SDS011;46846;51.528;5.076;2023-08-08T11:24:36;459.67;;;437.35;;
60973;SDS011;46846;51.528;5.076;2023-08-08T11:27:02;465.48;;;443.13;;
60973;SDS011;46846;51.528;5.076;2023-08-08T11:29:27;479.27;;;456.33;;
60973;SDS011;46846;51.528;5.076;2023-08-08T11:31:56;451.98;;;430.00;;
60973;SDS011;46846;51.528;5.076;2023-08-08T11:34:24;469.80;;;447.05;;
60973;SDS011;46846;51.528;5.076;2023-08-08T11:36:49;457.50;;;435.20;;
60973;SDS011;46846;51.528;5.076;2023-08-08T11:39:15;464.73;;;442.33;;
60973;SDS011;46846;51.528;5.076;2023-08-08T11:41:42;463.45;;;441.05;;
60973;SDS011;46846;51.528;5.076;2023-08-08T11:44:07;454.33;;;432.20;;
60973;SDS011;46846;51.528;5.076;2023-08-08T11:46:33;456.58;;;434.60;;
60973;SDS011;46846;51.528;5.076;2023-08-08T11:49:05;484.23;;;460.98;;
60973;SDS011;46846;51.528;5.076;2023-08-08T11:51:32;467.48;;;445.02;;
60973;SDS011;46846;51.528;5.076;2023-08-08T11:53:59;472.55;;;449.73;;
60973;SDS011;46846;51.528;5.076;2023-08-08T11:56:27;481.75;;;458.65;;
60973;SDS011;46846;51.528;5.076;2023-08-08T11:58:54;474.65;;;451.90;;
60973;SDS011;46846;51.528;5.076;2023-08-08T12:01:24;476.88;;;453.88;;
60973;SDS011;46846;51.528;5.076;2023-08-08T12:03:50;478.20;;;455.23;;
60973;SDS011;46846;51.528;5.076;2023-08-08T12:06:16;481.17;;;458.15;;
60973;SDS011;46846;51.528;5.076;2023-08-08T12:08:43;455.95;;;433.85;;
60973;SDS011;46846;51.528;5.076;2023-08-08T12:11:10;465.80;;;443.42;;
60973;SDS011;46846;51.528;5.076;2023-08-08T12:13:37;469.98;;;447.20;;
60973;SDS011;46846;51.528;5.076;2023-08-08T12:16:05;476.50;;;453.63;;
60973;SDS011;46846;51.528;5.076;2023-08-08T12:18:31;480.67;;;457.48;;
60973;SDS011;46846;51.528;5.076;2023-08-08T12:20:57;460.75;;;438.52;;
60973;SDS011;46846;51.528;5.076;2023-08-08T12:23:23;471.25;;;448.55;;
60973;SDS011;46846;51.528;5.076;2023-08-08T12:25:50;478.00;;;455.08;;
60973;SDS011;46846;51.528;5.076;2023-08-08T12:28:15;482.75;;;459.63;;
60973;SDS011;46846;51.528;5.076;2023-08-08T12:30:41;505.65;;;481.48;;
60973;SDS011;46846;51.528;5.076;2023-08-08T12:33:06;486.13;;;462.70;;
60973;SDS011;46846;51.528;5.076;2023-08-08T12:35:32;472.48;;;449.77;;
60973;SDS011;46846;51.528;5.076;2023-08-08T12:37:57;491.58;;;468.02;;
60973;SDS011;46846;51.528;5.076;2023-08-08T12:40:22;484.63;;;460.95;;
60973;SDS011;46846;51.528;5.076;2023-08-08T12:42:50;469.98;;;447.33;;
60973;SDS011;46846;51.528;5.076;2023-08-08T12:45:15;476.45;;;453.63;;
60973;SDS011;46846;51.528;5.076;2023-08-08T12:47:43;486.30;;;462.80;;
60973;SDS011;46846;51.528;5.076;2023-08-08T12:50:09;492.48;;;468.88;;
60973;SDS011;46846;51.528;5.076;2023-08-08T12:52:34;479.15;;;456.08;;
60973;SDS011;46846;51.528;5.076;2023-08-08T12:55:01;496.10;;;472.48;;
60973;SDS011;46846;51.528;5.076;2023-08-08T12:57:28;475.92;;;453.08;;
60973;SDS011;46846;51.528;5.076;2023-08-08T12:59:53;470.20;;;447.65;;
60973;SDS011;46846;51.528;5.076;2023-08-08T13:02:19;491.33;;;467.83;;
60973;SDS011;46846;51.528;5.076;2023-08-08T13:04:44;489.45;;;465.95;;
60973;SDS011;46846;51.528;5.076;2023-08-08T13:07:09;482.58;;;459.17;;
60973;SDS011;46846;51.528;5.076;2023-08-08T13:09:35;495.92;;;472.15;;
60973;SDS011;46846;51.528;5.076;2023-08-08T13:12:00;505.65;;;481.50;;
60973;SDS011;46846;51.528;5.076;2023-08-08T13:14:26;489.48;;;466.02;;
60973;SDS011;46846;51.528;5.076;2023-08-08T13:16:51;489.77;;;466.33;;
60973;SDS011;46846;51.528;5.076;2023-08-08T13:19:16;494.55;;;470.92;;
60973;SDS011;46846;51.528;5.076;2023-08-08T13:21:46;489.65;;;466.25;;
60973;SDS011;46846;51.528;5.076;2023-08-08T13:24:11;514.67;;;490.05;;
60973;SDS011;46846;51.528;5.076;2023-08-08T13:26:38;500.30;;;476.45;;
60973;SDS011;46846;51.528;5.076;2023-08-08T13:29:07;515.03;;;490.38;;
60973;SDS011;46846;51.528;5.076;2023-08-08T13:31:32;513.03;;;488.52;;
60973;SDS011;46846;51.528;5.076;2023-08-08T13:33:58;506.20;;;482.02;;
60973;SDS011;46846;51.528;5.076;2023-08-08T13:36:23;506.60;;;482.48;;
60973;SDS011;46846;51.528;5.076;2023-08-08T13:38:49;510.52;;;486.15;;
60973;SDS011;46846;51.528;5.076;2023-08-08T13:41:14;515.10;;;490.50;;
60973;SDS011;46846;51.528;5.076;2023-08-08T13:43:39;502.98;;;479.00;;
60973;SDS011;46846;51.528;5.076;2023-08-08T13:46:05;503.00;;;478.98;;
60973;SDS011;46846;51.528;5.076;2023-08-08T13:48:33;494.75;;;470.88;;
60973;SDS011;46846;51.528;5.076;2023-08-08T13:50:59;505.67;;;481.52;;
60973;SDS011;46846;51.528;5.076;2023-08-08T13:53:25;508.55;;;484.30;;
60973;SDS011;46846;51.528;5.076;2023-08-08T13:55:50;508.70;;;484.42;;
60973;SDS011;46846;51.528;5.076;2023-08-08T13:58:15;519.20;;;494.50;;
60973;SDS011;46846;51.528;5.076;2023-08-08T14:00:41;521.38;;;496.63;;
60973;SDS011;46846;51.528;5.076;2023-08-08T14:03:06;529.00;;;503.35;;
60973;SDS011;46846;51.528;5.076;2023-08-08T14:05:32;529.78;;;504.33;;
60973;SDS011;46846;51.528;5.076;2023-08-08T14:07:57;516.83;;;492.08;;